Time;durP1;ratioP1;P1;durP2;ratioP2;P2;SDS_P1;SDS_P2;PMS_P1;PMS_P2;Temp;Humidity;BMP_temperature;BMP_pressure;BME280_temperature;BME280_humidity;BME280_pressure;Samples;Min_cycle;Max_cycle;Signal;HPM_P1;HPM_P2
2020/12/28 00:00:26;;;;;;;29.70;14.55;;;;;;;0.13;75.03;99149.88;1740724;80;25839;-80
2020/12/28 00:02:55;;;;;;;27.25;14.70;;;;;;;0.15;75.04;99152.38;1738136;80;25425;-80
2020/12/28 00:05:23;;;;;;;21.48;12.58;;;;;;;0.15;75.12;99141.84;1742202;80;25784;-80
2020/12/28 00:07:53;;;;;;;28.15;14.23;;;;;;;0.15;75.34;99140.53;1770856;80;27318;-80
2020/12/28 00:10:22;;;;;;;30.62;14.75;;;;;;;0.15;75.31;99142.64;1735519;81;25436;-80
2020/12/28 00:12:50;;;;;;;25.97;13.58;;;;;;;0.16;75.34;99129.83;1703988;82;25841;-79
2020/12/28 00:15:26;;;;;;;26.75;13.70;;;;;;;0.16;75.56;99123.73;1722803;81;26516;-80
2020/12/28 00:17:57;;;;;;;26.33;12.20;;;;;;;0.17;75.43;99124.08;1735216;81;25729;-79
2020/12/28 00:20:27;;;;;;;;;;;;;;;0.15;75.48;99115.52;1732652;80;27589;-80
2020/12/28 00:22:54;;;;;;;22.55;12.95;;;;;;;0.14;75.61;99125.22;1702590;83;26435;-80
2020/12/28 00:25:25;;;;;;;26.00;13.03;;;;;;;0.12;75.70;99118.45;1731077;81;25844;-79
2020/12/28 00:27:53;;;;;;;26.90;12.35;;;;;;;0.15;75.72;99116.31;1726667;81;25706;-79
2020/12/28 00:30:21;;;;;;;28.40;14.87;;;;;;;0.16;75.78;99112.72;1715312;81;25425;-80
2020/12/28 00:32:48;;;;;;;25.48;13.68;;;;;;;0.18;75.96;99104.66;1703149;82;28460;-80
2020/12/28 00:35:16;;;;;;;29.60;14.93;;;;;;;0.21;75.77;99105.67;1721470;82;25934;-80
2020/12/28 00:37:43;;;;;;;23.02;12.28;;;;;;;0.16;75.82;99100.88;1738557;81;25501;-80
2020/12/28 00:40:11;;;;;;;27.65;14.53;;;;;;;0.22;75.82;99100.72;1680830;81;26466;-80
2020/12/28 00:42:38;;;;;;;29.05;15.10;;;;;;;0.20;75.97;99102.69;1737911;81;25350;-80
2020/12/28 00:45:09;;;;;;;27.52;13.65;;;;;;;0.21;76.16;99099.92;1735950;81;27714;-80
2020/12/28 00:47:37;;;;;;;27.67;14.40;;;;;;;0.22;76.01;99088.87;1742264;81;25872;-79
2020/12/28 00:50:06;;;;;;;22.32;13.50;;;;;;;0.21;76.16;99090.70;1717166;82;25898;-80
2020/12/28 00:52:34;;;;;;;27.22;13.85;;;;;;;0.22;76.31;99079.66;1757842;81;26007;-80
2020/12/28 00:55:02;;;;;;;26.48;14.20;;;;;;;0.22;76.37;99087.06;1738654;81;25789;-79
2020/12/28 00:57:29;;;;;;;32.42;16.42;;;;;;;0.26;76.38;99084.94;1760664;80;27614;-79
2020/12/28 00:59:57;;;;;;;31.68;13.75;;;;;;;0.27;76.57;99082.16;1717945;82;25890;-80
2020/12/28 01:02:26;;;;;;;27.65;13.35;;;;;;;0.30;76.46;99076.56;1722781;81;25839;-80
2020/12/28 01:04:55;;;;;;;28.27;15.08;;;;;;;0.32;76.80;99070.64;1707228;81;25788;-80
2020/12/28 01:07:24;;;;;;;29.70;16.35;;;;;;;0.34;76.68;99068.67;1738138;80;26400;-79
2020/12/28 01:09:56;;;;;;;27.15;15.10;;;;;;;0.36;76.70;99068.54;1741162;81;27539;-80
2020/12/28 01:12:24;;;;;;;24.92;12.55;;;;;;;0.36;76.62;99053.56;1730557;81;25875;-79
2020/12/28 01:14:53;;;;;;;22.25;13.25;;;;;;;0.36;76.68;99046.15;1744836;80;25840;-79
2020/12/28 01:17:22;;;;;;;35.83;15.58;;;;;;;0.35;76.82;99039.22;1757599;80;25870;-80
2020/12/28 01:19:54;;;;;;;27.85;15.03;;;;;;;0.36;76.86;99034.30;1744470;80;26128;-80
2020/12/28 01:22:22;;;;;;;28.50;14.45;;;;;;;0.37;76.99;99027.55;1727976;80;28434;-79
2020/12/28 01:24:50;;;;;;;28.50;15.30;;;;;;;0.41;77.13;99028.04;1694186;81;25827;-80
2020/12/28 01:27:19;;;;;;;27.75;13.70;;;;;;;0.43;77.05;99026.06;1731824;81;25799;-80
2020/12/28 01:29:46;;;;;;;29.63;15.23;;;;;;;0.42;76.93;99017.36;1719521;80;25731;-79
2020/12/28 01:32:14;;;;;;;32.78;16.80;;;;;;;0.42;76.94;99017.36;1727497;81;25370;-79
2020/12/28 01:34:49;;;;;;;31.57;15.78;;;;;;;0.44;76.96;99013.25;1748153;81;28143;-79
2020/12/28 01:37:17;;;;;;;28.65;16.50;;;;;;;0.45;77.04;99007.00;1746250;81;25812;-79
2020/12/28 01:39:46;;;;;;;29.23;15.95;;;;;;;0.47;77.14;98997.93;1713060;81;25861;-80
2020/12/28 01:42:14;;;;;;;35.80;16.57;;;;;;;0.49;77.23;98993.32;1687581;81;26471;-79
2020/12/28 01:44:43;;;;;;;30.37;17.05;;;;;;;0.52;77.38;98982.96;1746037;81;25427;-79
2020/12/28 01:47:18;;;;;;;33.73;17.27;;;;;;;0.53;77.63;98974.92;1762859;80;27546;-80
2020/12/28 01:49:46;;;;;;;28.23;15.85;;;;;;;0.53;77.42;98976.23;1756512;81;25801;-79
2020/12/28 01:52:14;;;;;;;40.67;20.62;;;;;;;0.57;77.50;98974.09;1741266;80;25804;-80
2020/12/28 01:54:42;;;;;;;33.88;17.87;;;;;;;0.57;77.49;98968.33;1738648;81;25702;-80
2020/12/28 01:57:14;;;;;;;33.10;17.05;;;;;;;0.61;77.62;98975.41;1749367;80;25797;-79
2020/12/28 01:59:43;;;;;;;28.80;16.20;;;;;;;0.64;77.55;98977.21;1745548;80;27811;-79
2020/12/28 02:02:12;;;;;;;31.50;17.40;;;;;;;0.65;77.58;98980.67;1733022;81;25799;-80
2020/12/28 02:04:40;;;;;;;28.45;15.35;;;;;;;0.68;77.61;98975.89;1723537;80;25945;-79
2020/12/28 02:07:10;;;;;;;26.50;15.18;;;;;;;0.71;77.58;98978.70;1765557;80;26466;-80
2020/12/28 02:09:45;;;;;;;28.10;15.85;;;;;;;0.72;77.58;98966.70;1745685;80;25897;-80
2020/12/28 02:12:15;;;;;;;23.87;14.70;;;;;;;0.74;77.68;98959.94;1738058;81;27619;-80
2020/12/28 02:14:43;;;;;;;29.27;15.63;;;;;;;0.75;77.57;98957.62;1732196;81;25771;-79
2020/12/28 02:17:25;;;;;;;27.82;16.37;;;;;;;0.85;77.54;98960.10;1871022;74;26589;-80
2020/12/28 02:19:54;;;;;;;18.45;10.60;;;;;;;0.79;77.54;98966.34;1791710;77;25815;-80
2020/12/28 02:22:22;;;;;;;27.58;16.77;;;;;;;0.80;77.67;98938.19;1789229;77;28292;-80
2020/12/28 02:24:51;;;;;;;28.17;17.17;;;;;;;0.78;77.54;98950.23;1820901;77;26403;-80
2020/12/28 02:27:18;;;;;;;26.82;15.53;;;;;;;0.80;77.54;98938.19;1774386;78;25429;-80
2020/12/28 02:29:46;;;;;;;28.17;16.87;;;;;;;0.82;77.76;98936.22;1789900;77;25856;-79
2020/12/28 02:32:15;;;;;;;24.67;14.18;;;;;;;0.84;77.94;98944.78;1785543;77;25763;-80
2020/12/28 02:34:52;;;;;;;27.48;16.37;;;;;;;0.90;77.86;98938.84;1861728;76;26217;-80
2020/12/28 02:37:27;;;;;;;27.15;15.53;;;;;;;0.87;77.89;98941.82;1819684;77;25841;-79
2020/12/28 02:39:56;;;;;;;28.05;15.35;;;;;;;0.89;77.97;98941.16;1765700;79;28490;-80
2020/12/28 02:42:24;;;;;;;20.32;12.18;;;;;;;0.91;78.42;98937.86;1770399;77;26286;-80
2020/12/28 02:45:10;;;;;;;27.65;14.43;;;;;;;0.96;78.09;98932.09;1794380;77;25716;-80
2020/12/28 02:47:56;;;;;;;25.10;14.98;;;;;;;0.98;78.16;98936.22;1821406;77;25708;-80
2020/12/28 02:50:42;;;;;;;24.65;13.72;;;;;;;1.01;78.27;98922.69;1775851;77;26427;-79
2020/12/28 02:53:28;;;;;;;26.05;15.40;;;;;;;1.04;78.23;98917.58;1769607;77;28606;-80
2020/12/28 02:56:17;;;;;;;25.70;15.30;;;;;;;1.12;78.40;98917.07;1839694;77;25733;-80
2020/12/28 02:59:03;;;;;;;28.65;15.63;;;;;;;1.09;78.25;98907.36;1805366;78;26162;-79
2020/12/28 03:01:49;;;;;;;24.12;13.48;;;;;;;1.12;78.51;98905.69;1776043;78;26635;-80
2020/12/28 03:04:35;;;;;;;27.98;14.90;;;;;;;1.13;78.26;98896.31;1782840;78;25879;-80
2020/12/28 03:07:25;;;;;;;27.73;14.28;;;;;;;1.21;78.35;98896.29;1835345;77;25707;-79
2020/12/28 03:10:11;;;;;;;26.93;14.75;;;;;;;1.15;78.31;98894.33;1787404;80;26158;-79
2020/12/28 03:12:57;;;;;;;26.27;15.40;;;;;;;1.17;78.33;98888.88;1741340;80;28494;-80
2020/12/28 03:15:43;;;;;;;29.55;16.42;;;;;;;1.17;78.54;98879.16;1768550;80;25773;-80
2020/12/28 03:18:28;;;;;;;24.63;15.03;;;;;;;1.21;78.42;98880.47;1764327;80;25785;-80
2020/12/28 03:21:14;;;;;;;27.82;15.25;;;;;;;1.23;78.47;98868.42;1787613;78;25815;-79
2020/12/28 03:24:00;;;;;;;36.95;22.05;;;;;;;1.25;78.43;98867.75;1766872;80;26182;-79
2020/12/28 03:26:46;;;;;;;32.40;18.48;;;;;;;1.26;78.46;98865.45;1768769;80;27715;-80
2020/12/28 03:29:33;;;;;;;33.10;18.02;;;;;;;1.27;78.55;98861.32;1760249;80;25766;-80
2020/12/28 03:32:19;;;;;;;30.50;17.92;;;;;;;1.29;78.51;98861.14;1764442;80;25852;-80
2020/12/28 03:35:05;;;;;;;31.85;17.00;;;;;;;1.29;78.53;98853.23;1746414;80;25873;-80
2020/12/28 03:37:50;;;;;;;28.10;16.65;;;;;;;1.28;78.54;98845.81;1768691;80;25763;-80
2020/12/28 03:40:36;;;;;;;25.15;14.15;;;;;;;1.29;78.58;98840.05;1739565;80;28334;-80
2020/12/28 03:43:32;;;;;;;22.80;14.13;;;;;;;1.35;78.56;98827.48;1840939;77;25708;-80
2020/12/28 03:46:17;;;;;;;27.70;16.50;;;;;;;1.30;78.62;98821.92;1791552;79;26089;-80
2020/12/28 03:49:03;;;;;;;29.15;15.88;;;;;;;1.31;78.91;98819.59;1762056;79;27603;-80
2020/12/28 03:51:49;;;;;;;26.62;14.13;;;;;;;1.33;78.75;98817.61;1751014;79;26755;-80
2020/12/28 03:54:35;;;;;;;25.80;14.93;;;;;;;1.33;78.83;98803.93;1769321;79;25764;-79
2020/12/28 03:57:21;;;;;;;24.95;15.60;;;;;;;1.35;78.86;98797.16;1774157;79;26027;-80
2020/12/28 04:00:06;;;;;;;25.95;14.80;;;;;;;1.36;78.97;98785.62;1761931;79;25746;-79
2020/12/28 04:02:44;;;;;;;29.32;16.75;;;;;;;1.39;78.99;98780.02;1746816;79;27547;-80
2020/12/28 04:05:34;;;;;;;25.50;15.70;;;;;;;1.46;79.03;98776.50;1835589;77;25688;-80
2020/12/28 04:08:16;;;;;;;22.95;15.55;;;;;;;1.43;79.02;98776.03;1752464;78;25769;-79
2020/12/28 04:11:01;;;;;;;25.57;15.50;;;;;;;1.44;79.21;98765.79;1754087;78;27555;-79
2020/12/28 04:13:38;;;;;;;23.67;14.03;;;;;;;1.50;79.03;98765.09;1836263;77;25333;-79
2020/12/28 04:16:06;;;;;;;24.92;16.07;;;;;;;1.46;79.09;98759.34;1798526;78;25984;-79
2020/12/28 04:18:33;;;;;;;22.85;14.65;;;;;;;1.47;79.15;98753.58;1754825;78;27531;-79
2020/12/28 04:21:01;;;;;;;27.98;16.65;;;;;;;1.48;79.29;98734.94;1743507;80;26148;-79
2020/12/28 04:23:28;;;;;;;24.45;16.12;;;;;;;1.49;79.21;98747.14;1737180;80;25846;-80
2020/12/28 04:25:57;;;;;;;26.50;16.52;;;;;;;1.51;79.31;98757.02;1732735;81;26478;-79
2020/12/28 04:28:25;;;;;;;27.62;17.10;;;;;;;1.51;79.25;98741.19;1696469;81;26339;-80
2020/12/28 04:30:52;;;;;;;26.23;14.58;;;;;;;1.53;79.28;98747.60;1703449;81;27029;-80
2020/12/28 04:33:20;;;;;;;23.98;14.63;;;;;;;1.55;79.28;98741.16;1732137;81;25901;-79
2020/12/28 04:35:47;;;;;;;25.75;16.12;;;;;;;1.57;79.32;98751.53;1740052;81;26101;-80
2020/12/28 04:38:14;;;;;;;24.72;16.50;;;;;;;1.60;79.32;98738.50;1694466;80;25901;-80
2020/12/28 04:40:42;;;;;;;27.95;15.60;;;;;;;1.62;79.37;98741.78;1696267;81;26334;-79
2020/12/28 04:43:12;;;;;;;27.05;16.15;;;;;;;1.63;79.46;98744.72;1739809;81;27327;-80
2020/12/28 04:45:41;;;;;;;24.77;14.83;;;;;;;1.65;79.36;98745.40;1738768;82;32764;-80
2020/12/28 04:48:10;;;;;;;21.77;14.28;;;;;;;1.66;79.41;98751.81;1695504;81;25974;-80
2020/12/28 04:50:40;;;;;;;24.37;14.23;;;;;;;1.66;79.42;98755.77;1714646;81;25893;-80
2020/12/28 04:53:07;;;;;;;27.32;15.55;;;;;;;1.69;79.41;98754.61;1707127;81;25792;-80
2020/12/28 04:55:35;;;;;;;28.30;15.05;;;;;;;1.69;79.39;98755.40;1749640;80;27522;-80
2020/12/28 04:58:02;;;;;;;23.47;15.03;;;;;;;1.71;79.42;98762.64;1677108;81;26616;-80
2020/12/28 05:00:29;;;;;;;22.70;15.20;;;;;;;1.73;79.42;98757.21;1676946;82;25893;-80
2020/12/28 05:02:57;;;;;;;26.55;14.40;;;;;;;1.73;79.57;98758.53;1711131;81;26480;-80
2020/12/28 05:05:24;;;;;;;31.40;16.32;;;;;;;1.76;79.50;98768.23;1767702;80;26536;-80
2020/12/28 05:07:52;;;;;;;26.87;16.40;;;;;;;1.78;79.61;98764.91;1689377;81;27603;-80
2020/12/28 05:10:26;;;;;;;24.07;15.03;;;;;;;1.80;79.50;98772.16;1693639;81;26425;-80
2020/12/28 05:12:54;;;;;;;23.87;15.50;;;;;;;1.84;79.53;98778.72;1744648;81;25377;-80
2020/12/28 05:15:22;;;;;;;27.17;15.95;;;;;;;1.86;79.51;98778.05;1732010;81;25709;-80
2020/12/28 05:17:54;;;;;;;27.32;16.70;;;;;;;1.88;79.51;98776.58;1710241;81;26026;-80
2020/12/28 05:20:24;;;;;;;33.00;16.97;;;;;;;1.91;79.64;98772.25;1736735;81;28490;-80
2020/12/28 05:22:53;;;;;;;25.37;15.45;;;;;;;1.93;79.58;98779.00;1722775;81;25776;-80
2020/12/28 05:25:22;;;;;;;27.98;15.80;;;;;;;1.96;79.55;98777.34;1758727;80;25382;-80
2020/12/28 05:27:50;;;;;;;25.95;16.95;;;;;;;1.96;79.57;98776.51;1709464;80;26695;-80
2020/12/28 05:30:21;;;;;;;30.55;16.15;;;;;;;1.97;79.51;98773.69;1683555;82;25870;-80
2020/12/28 05:32:49;;;;;;;25.48;16.42;;;;;;;2.00;79.61;98763.27;1735169;80;28033;-81
2020/12/28 05:35:16;;;;;;;30.32;16.73;;;;;;;1.99;79.42;98750.56;1717667;81;26127;-80
2020/12/28 05:37:48;;;;;;;31.48;18.70;;;;;;;2.00;79.44;98755.35;1722878;80;25686;-80
2020/12/28 05:40:25;;;;;;;24.72;16.17;;;;;;;2.05;79.39;98746.41;1836103;77;25669;-79
2020/12/28 05:42:56;;;;;;;30.57;16.57;;;;;;;2.00;79.56;98757.50;1790691;79;26353;-79
2020/12/28 05:45:23;;;;;;;28.47;16.85;;;;;;;2.01;79.52;98759.13;1762940;78;27710;-80
2020/12/28 05:47:57;;;;;;;25.40;14.98;;;;;;;2.01;79.49;98753.05;1765638;80;26167;-80
2020/12/28 05:50:29;;;;;;;33.18;19.00;;;;;;;2.02;79.54;98759.95;1765271;80;25778;-79
2020/12/28 05:52:59;;;;;;;33.08;19.75;;;;;;;2.02;79.56;98744.94;1732945;82;26466;-80
2020/12/28 05:55:30;;;;;;;26.33;16.90;;;;;;;2.05;79.57;98753.81;1699433;81;33455;-79
2020/12/28 05:57:59;;;;;;;28.77;16.95;;;;;;;2.06;79.71;98756.78;1690675;82;27542;-79
2020/12/28 06:00:27;;;;;;;24.55;15.98;;;;;;;2.10;79.94;98750.64;1724991;82;26509;-81
2020/12/28 06:02:55;;;;;;;24.30;16.12;;;;;;;2.12;79.73;98740.72;1731741;82;25726;-79
2020/12/28 06:05:22;;;;;;;22.93;14.50;;;;;;;2.15;79.67;98737.73;1694288;81;26133;-80
2020/12/28 06:07:50;;;;;;;24.43;15.35;;;;;;;2.13;79.58;98735.28;1679806;83;26149;-80
2020/12/28 06:10:19;;;;;;;24.75;15.18;;;;;;;2.10;79.62;98740.08;1701533;82;27578;-79
2020/12/28 06:12:52;;;;;;;26.68;18.30;;;;;;;2.08;79.69;98726.23;1731800;82;25756;-79
2020/12/28 06:15:20;;;;;;;28.85;17.37;;;;;;;2.06;79.70;98723.78;1745430;81;26250;-79
2020/12/28 06:17:48;;;;;;;27.60;17.05;;;;;;;2.06;79.84;98727.73;1695753;81;26317;-79
2020/12/28 06:20:16;;;;;;;24.87;15.93;;;;;;;2.05;79.96;98717.36;1721156;81;25830;-79
2020/12/28 06:22:44;;;;;;;26.00;15.45;;;;;;;2.03;80.07;98724.64;1730341;82;27530;-79
2020/12/28 06:25:19;;;;;;;24.77;15.65;;;;;;;2.02;80.00;98721.67;1697628;82;26507;-79
2020/12/28 06:27:47;;;;;;;24.27;14.23;;;;;;;2.02;80.08;98724.31;1708670;82;26498;-80
2020/12/28 06:30:23;;;;;;;22.52;15.83;;;;;;;2.01;80.17;98709.48;1699620;82;25849;-78
2020/12/28 06:33:04;;;;;;;27.67;17.82;;;;;;;1.98;80.13;98716.42;1731805;82;25565;-79
2020/12/28 06:35:33;;;;;;;32.15;17.55;;;;;;;1.98;80.22;98715.11;1695461;81;27544;-79
2020/12/28 06:38:02;;;;;;;29.37;16.52;;;;;;;1.96;80.24;98713.14;1681731;82;25961;-79
2020/12/28 06:40:35;;;;;;;26.82;17.32;;;;;;;1.98;80.32;98715.11;1692286;83;26425;-80
2020/12/28 06:43:13;;;;;;;34.58;19.73;;;;;;;1.96;80.40;98715.78;1710159;82;26373;-80
2020/12/28 06:45:44;;;;;;;33.05;18.95;;;;;;;1.96;80.31;98722.38;1677764;83;26101;-79
2020/12/28 06:48:24;;;;;;;35.88;19.95;;;;;;;1.95;80.41;98720.73;1710063;82;28144;-80
2020/12/28 06:50:53;;;;;;;48.38;23.32;;;;;;;1.95;80.77;98716.77;1686367;83;25433;-80
2020/12/28 06:53:24;;;;;;;44.83;22.35;;;;;;;1.94;80.76;98717.78;1735084;82;26274;-79
2020/12/28 06:55:52;;;;;;;42.05;21.27;;;;;;;1.93;80.79;98711.67;1688891;83;26541;-80
2020/12/28 06:58:22;;;;;;;39.15;20.88;;;;;;;1.87;81.19;98692.59;1697749;82;26213;-80
2020/12/28 07:00:59;;;;;;;22.07;12.75;;;;;;;1.94;80.99;98701.45;1714856;82;27322;-80
2020/12/28 07:03:27;;;;;;;31.37;19.40;;;;;;;1.95;81.11;98706.20;1722704;82;25964;-79
2020/12/28 07:06:03;;;;;;;32.70;19.95;;;;;;;1.95;81.10;98699.11;1674063;82;25784;-79
2020/12/28 07:08:37;;;;;;;38.20;21.37;;;;;;;1.95;81.11;98707.03;1707070;82;26591;-80
2020/12/28 07:11:05;;;;;;;31.05;19.62;;;;;;;1.96;81.48;98702.09;1704782;81;25460;-79
2020/12/28 07:13:33;;;;;;;32.78;19.73;;;;;;;1.98;81.42;98696.63;1728636;82;27530;-77
2020/12/28 07:16:06;;;;;;;36.40;19.52;;;;;;;2.02;81.43;98701.38;1679433;82;26379;-77
2020/12/28 07:18:35;;;;;;;37.78;23.32;;;;;;;2.07;81.45;98687.64;1704096;83;25806;-78
2020/12/28 07:21:04;;;;;;;32.95;21.12;;;;;;;2.09;81.45;98700.98;1691127;83;25894;-76
2020/12/28 07:23:33;;;;;;;36.50;20.68;;;;;;;2.13;81.52;98701.44;1712740;82;26103;-79
2020/12/28 07:26:10;;;;;;;39.35;21.25;;;;;;;2.16;81.50;98699.25;1712197;82;27615;-78
2020/12/28 07:28:40;;;;;;;38.40;21.40;;;;;;;2.19;81.57;98696.27;1691787;82;25854;-79
2020/12/28 07:31:08;;;;;;;43.63;21.87;;;;;;;2.20;81.67;98696.56;1714686;82;25800;-78
2020/12/28 07:33:47;;;;;;;35.75;20.37;;;;;;;2.22;81.65;98682.67;1701901;82;25773;-78
2020/12/28 07:36:18;;;;;;;33.18;19.87;;;;;;;2.24;81.67;98678.06;1683085;82;26045;-80
2020/12/28 07:38:48;;;;;;;29.80;16.20;;;;;;;2.28;81.91;98675.37;1708746;81;27665;-80
2020/12/28 07:41:19;;;;;;;28.42;17.52;;;;;;;2.30;81.76;98668.58;1696831;82;25771;-79
2020/12/28 07:43:56;;;;;;;39.35;21.02;;;;;;;2.32;81.83;98666.09;1727381;82;25805;-79
2020/12/28 07:46:47;;;;;;;26.55;15.15;;;;;;;2.36;81.83;98675.78;1660128;85;25825;-79
2020/12/28 07:49:22;;;;;;;31.62;19.32;;;;;;;2.40;81.95;98670.94;1732259;82;25847;-80
2020/12/28 07:51:57;;;;;;;33.15;17.20;;;;;;;2.43;81.91;98671.91;1686851;83;27278;-80
2020/12/28 07:54:30;;;;;;;40.98;21.20;;;;;;;2.50;81.94;98671.52;1732722;82;26420;-80
2020/12/28 07:57:01;;;;;;;30.82;18.80;;;;;;;2.54;81.95;98661.72;1712285;82;25985;-79
2020/12/28 07:59:54;;;;;;;32.53;18.30;;;;;;;2.60;81.95;98660.98;1687566;82;25758;-80
2020/12/28 08:02:48;;;;;;;38.05;20.08;;;;;;;2.65;81.94;98655.94;1687546;84;26558;-80
2020/12/28 08:05:21;;;;;;;33.05;19.55;;;;;;;2.70;81.73;98635.08;1705010;83;27561;-80
2020/12/28 08:07:49;;;;;;;29.72;16.52;;;;;;;2.70;81.66;98636.89;1663307;83;25758;-81
2020/12/28 08:10:16;;;;;;;40.88;21.40;;;;;;;2.71;81.62;98658.38;1660292;83;26467;-80
2020/12/28 08:12:59;;;;;;;34.70;21.48;;;;;;;2.71;81.82;98655.73;1686476;83;25818;-80
2020/12/28 08:15:32;;;;;;;33.42;18.70;;;;;;;2.74;81.68;98663.27;1708076;83;26504;-79
2020/12/28 08:18:09;;;;;;;34.53;21.02;;;;;;;2.78;81.64;98647.39;1698314;82;27537;-79
2020/12/28 08:20:39;;;;;;;35.10;21.17;;;;;;;2.81;81.58;98645.67;1662738;83;25900;-80
2020/12/28 08:23:08;;;;;;;31.60;19.40;;;;;;;2.82;81.40;98632.27;1732478;82;26550;-80
2020/12/28 08:28:12;;;;;;;36.05;20.72;;;;;;;2.84;81.30;98636.06;1813316;77;25718;-80
2020/12/28 08:30:41;;;;;;;27.32;18.45;;;;;;;2.79;81.36;98641.08;1802128;78;26122;-79
2020/12/28 08:33:09;;;;;;;33.53;19.23;;;;;;;2.80;81.28;98640.88;1755157;78;27539;-80
2020/12/28 08:35:48;;;;;;;31.77;18.45;;;;;;;2.81;81.38;98633.78;1772076;78;26240;-80
2020/12/28 08:38:16;;;;;;;33.23;20.60;;;;;;;2.81;81.29;98637.75;1751574;79;25812;-80
2020/12/28 08:40:55;;;;;;;34.78;21.30;;;;;;;2.82;81.30;98640.72;1788582;78;25964;-80
2020/12/28 08:43:23;;;;;;;34.18;21.50;;;;;;;2.79;81.29;98645.88;1743181;78;25783;-79
2020/12/28 08:46:05;;;;;;;33.20;19.85;;;;;;;2.79;81.18;98634.47;1780716;78;27481;-79
2020/12/28 08:48:32;;;;;;;27.93;18.52;;;;;;;2.80;81.20;98631.63;1767099;80;25776;-80
2020/12/28 08:51:00;;;;;;;34.38;19.98;;;;;;;2.81;81.21;98631.97;1791984;78;25743;-79
2020/12/28 08:53:28;;;;;;;29.95;19.95;;;;;;;2.86;81.42;98636.70;1751808;79;26048;-79
2020/12/28 08:56:01;;;;;;;28.35;19.07;;;;;;;2.90;81.58;98633.50;1756539;80;25804;-80
2020/12/28 08:58:29;;;;;;;28.47;19.32;;;;;;;2.94;81.48;98639.23;1772833;78;27072;-80
2020/12/28 09:00:56;;;;;;;27.98;17.05;;;;;;;3.00;81.48;98628.73;1792513;78;25781;-80
2020/12/28 09:03:24;;;;;;;27.80;18.30;;;;;;;3.07;81.49;98624.34;1751060;78;25843;-79
2020/12/28 09:05:51;;;;;;;32.17;20.23;;;;;;;3.11;81.29;98618.16;1768641;78;26570;-79
2020/12/28 09:08:18;;;;;;;33.25;20.97;;;;;;;3.11;81.18;98618.16;1757111;78;26020;-79
2020/12/28 09:10:46;;;;;;;27.50;18.95;;;;;;;3.13;81.12;98610.86;1790874;78;27526;-79
2020/12/28 09:13:13;;;;;;;31.20;19.12;;;;;;;3.16;81.17;98602.55;1731277;78;25991;-80
2020/12/28 09:15:41;;;;;;;36.25;22.32;;;;;;;3.20;81.25;98599.02;1771977;78;25894;-79
2020/12/28 09:18:08;;;;;;;33.75;21.45;;;;;;;3.26;81.47;98591.64;1763543;80;25853;-79
2020/12/28 09:20:35;;;;;;;38.75;20.95;;;;;;;3.32;81.27;98583.77;1798816;78;25714;-79
2020/12/28 09:23:03;;;;;;;27.90;18.12;;;;;;;3.38;81.24;98578.24;1726463;78;26774;-80
2020/12/28 09:25:30;;;;;;;29.20;18.00;;;;;;;3.43;81.14;98582.44;1768928;78;25582;-82
2020/12/28 09:27:58;;;;;;;32.73;20.15;;;;;;;3.45;81.06;98587.86;1759012;80;25824;-79
2020/12/28 09:30:25;;;;;;;42.08;23.87;;;;;;;3.48;80.98;98582.20;1776608;80;26053;-79
2020/12/28 09:32:52;;;;;;;41.53;25.72;;;;;;;3.50;80.87;98584.16;1710241;80;26557;-81
2020/12/28 09:35:20;;;;;;;51.35;30.57;;;;;;;3.50;80.72;98587.30;1782086;79;27514;-79
2020/12/28 09:37:47;;;;;;;65.08;36.28;;;;;;;3.51;80.81;98583.63;1759773;80;25943;-78
2020/12/28 09:40:14;;;;;;;38.17;23.98;;;;;;;3.57;80.88;98575.73;1779348;79;25786;-80
2020/12/28 09:42:42;;;;;;;28.52;19.77;;;;;;;3.61;80.86;98555.84;1716869;80;25434;-80
2020/12/28 09:45:36;;;;;;;34.67;23.98;;;;;;;3.67;80.93;98559.54;1747195;80;26555;-80
2020/12/28 09:47:39;;;;;;;34.80;20.97;;;;;;;3.73;80.89;98561.41;1757815;80;27385;-79
2020/12/28 09:50:06;;;;;;;39.85;29.92;;;;;;;3.80;80.84;98559.14;1773765;80;25884;-80
2020/12/28 09:52:33;;;;;;;26.95;17.85;;;;;;;3.87;80.79;98560.52;1705861;81;25776;-78
2020/12/28 09:55:01;;;;;;;27.73;17.30;;;;;;;3.92;80.64;98547.48;1745462;80;26123;-77
2020/12/28 09:57:28;;;;;;;27.55;15.03;;;;;;;3.97;80.60;98524.39;1746506;78;26141;-79
2020/12/28 09:59:55;;;;;;;22.17;15.40;;;;;;;4.01;80.56;98520.34;1780325;79;28503;-77
2020/12/28 10:02:23;;;;;;;23.70;14.05;;;;;;;4.07;80.54;98534.12;1760559;80;25882;-77
2020/12/28 10:04:50;;;;;;;23.30;15.28;;;;;;;4.11;80.43;98515.48;1733878;80;25825;-79
2020/12/28 10:07:18;;;;;;;25.17;14.05;;;;;;;4.14;80.39;98513.28;1755968;80;25940;-78
2020/12/28 10:09:45;;;;;;;22.60;13.70;;;;;;;4.19;80.32;98508.20;1775571;79;25736;-78
2020/12/28 10:12:12;;;;;;;25.00;16.57;;;;;;;4.22;80.24;98497.72;1665272;81;28068;-81
2020/12/28 10:14:40;;;;;;;26.97;17.05;;;;;;;4.24;80.17;98500.98;1668484;83;25827;-77
2020/12/28 10:17:07;;;;;;;29.65;16.80;;;;;;;4.26;80.05;98497.63;1616027;86;25829;-76
2020/12/28 10:19:35;;;;;;;40.28;21.15;;;;;;;4.28;80.09;98493.77;1666527;85;26170;-77
2020/12/28 10:22:02;;;;;;;32.30;19.35;;;;;;;4.32;80.11;98484.94;1630872;86;25992;-80
2020/12/28 10:24:30;;;;;;;32.93;19.30;;;;;;;4.37;80.07;98479.84;1664151;85;27548;-79
2020/12/28 10:26:57;;;;;;;35.85;21.50;;;;;;;4.40;80.06;98476.30;1641749;84;26575;-80
2020/12/28 10:29:25;;;;;;;42.65;23.18;;;;;;;4.42;80.04;98454.39;1682020;84;25721;-80
2020/12/28 10:31:58;;;;;;;43.70;23.25;;;;;;;4.45;79.97;98453.97;1631550;84;25927;-79
2020/12/28 10:34:26;;;;;;;27.82;17.42;;;;;;;4.51;79.99;98455.02;1627673;85;26138;-80
2020/12/28 10:36:53;;;;;;;26.42;16.00;;;;;;;4.56;80.01;98453.89;1674003;83;27354;-80
2020/12/28 10:39:22;;;;;;;24.85;15.50;;;;;;;4.63;80.13;98443.63;1695027;84;26243;-79
2020/12/28 10:41:50;;;;;;;24.10;14.15;;;;;;;4.67;80.04;98434.75;1647328;84;26489;-80
2020/12/28 10:44:18;;;;;;;22.85;14.65;;;;;;;4.72;79.92;98430.17;1665257;84;26365;-79
2020/12/28 10:46:50;;;;;;;24.70;15.90;;;;;;;4.75;79.86;98399.28;1664724;84;25933;-79
2020/12/28 10:49:17;;;;;;;;;;;;;;;4.80;79.89;98407.42;1698633;83;27519;-79
2020/12/28 10:51:47;;;;;;;19.17;12.50;;;;;;;4.85;79.86;98408.47;1661454;84;25459;-79
2020/12/28 10:54:15;;;;;;;19.73;12.95;;;;;;;4.89;79.85;98392.95;1641789;82;26370;-79
2020/12/28 10:56:43;;;;;;;19.50;12.25;;;;;;;4.93;79.83;98394.99;1667979;82;25879;-79
2020/12/28 10:59:10;;;;;;;20.08;13.28;;;;;;;5.00;79.82;98387.86;1651792;84;26451;-80
2020/12/28 11:01:38;;;;;;;17.10;11.63;;;;;;;5.05;79.58;98388.54;1673802;84;27639;-81
2020/12/28 11:04:06;;;;;;;19.32;12.82;;;;;;;5.09;79.44;98383.16;1666408;84;25969;-80
2020/12/28 11:06:33;;;;;;;17.87;11.65;;;;;;;5.06;79.29;98373.77;1654597;84;25878;-80
2020/12/28 11:09:00;;;;;;;23.00;14.28;;;;;;;5.06;79.20;98378.25;1641264;85;25851;-79
2020/12/28 11:11:28;;;;;;;36.60;20.05;;;;;;;5.04;79.17;98370.50;1662507;83;26569;-79
2020/12/28 11:13:55;;;;;;;28.20;16.73;;;;;;;5.04;79.02;98373.66;1696869;83;27545;-80
2020/12/28 11:16:26;;;;;;;40.60;19.32;;;;;;;5.02;78.99;98365.09;1677232;83;25729;-80
2020/12/28 11:18:54;;;;;;;39.67;18.98;;;;;;;5.01;79.03;98374.06;1696586;83;25375;-80
2020/12/28 11:21:21;;;;;;;39.53;19.07;;;;;;;4.99;79.03;98368.14;1674171;83;25804;-80
2020/12/28 11:23:59;;;;;;;40.10;18.52;;;;;;;4.99;79.06;98346.92;1707104;83;25773;-80
2020/12/28 11:26:29;;;;;;;31.68;17.07;;;;;;;4.98;78.98;98332.05;1698369;83;28302;-79
2020/12/28 11:29:06;;;;;;;34.50;18.80;;;;;;;5.02;79.01;98335.91;1832003;77;25823;-80
2020/12/28 11:31:34;;;;;;;25.30;14.38;;;;;;;4.96;79.07;98337.53;1750163;81;26602;-80
2020/12/28 11:34:01;;;;;;;27.62;14.87;;;;;;;4.97;78.94;98335.20;1715552;81;27548;-79
2020/12/28 11:36:28;;;;;;;31.27;15.58;;;;;;;4.98;79.13;98331.54;1757388;80;26147;-80
2020/12/28 11:38:56;;;;;;;44.08;19.55;;;;;;;5.03;79.10;98341.00;1716227;81;25827;-80
2020/12/28 11:41:23;;;;;;;36.53;18.48;;;;;;;5.05;79.03;98344.77;1732923;81;25896;-80
2020/12/28 11:43:51;;;;;;;33.78;16.62;;;;;;;5.06;79.03;98343.25;1696627;82;25414;-80
2020/12/28 11:46:19;;;;;;;35.55;17.65;;;;;;;5.08;79.02;98332.42;1701053;81;27601;-80
2020/12/28 11:48:46;;;;;;;30.20;16.15;;;;;;;5.09;79.09;98334.86;1752614;81;25879;-80